sensor_id;sensor_type;location;lat;lon;timestamp;P1;durP1;ratioP1;P2;durP2;ratioP2
22441;SDS011;11388;54.456;9.752;2023-04-15T00:01:34;7.57;;;5.80;;
22441;SDS011;11388;54.456;9.752;2023-04-15T00:04:01;7.22;;;6.15;;
22441;SDS011;11388;54.456;9.752;2023-04-15T00:06:26;8.07;;;6.53;;
22441;SDS011;11388;54.456;9.752;2023-04-15T00:08:52;7.07;;;6.25;;
22441;SDS011;11388;54.456;9.752;2023-04-15T00:11:18;7.20;;;6.50;;
22441;SDS011;11388;54.456;9.752;2023-04-15T00:13:44;6.80;;;5.50;;
22441;SDS011;11388;54.456;9.752;2023-04-15T00:16:10;6.70;;;6.00;;
22441;SDS011;11388;54.456;9.752;2023-04-15T00:18:36;7.32;;;5.85;;
22441;SDS011;11388;54.456;9.752;2023-04-15T00:21:03;6.72;;;5.95;;
22441;SDS011;11388;54.456;9.752;2023-04-15T00:23:29;7.55;;;5.63;;
22441;SDS011;11388;54.456;9.752;2023-04-15T00:25:55;6.05;;;5.38;;
22441;SDS011;11388;54.456;9.752;2023-04-15T00:28:21;7.97;;;5.40;;
22441;SDS011;11388;54.456;9.752;2023-04-15T00:30:47;8.00;;;5.60;;
22441;SDS011;11388;54.456;9.752;2023-04-15T00:33:13;6.28;;;5.53;;
22441;SDS011;11388;54.456;9.752;2023-04-15T00:35:38;6.00;;;5.40;;
22441;SDS011;11388;54.456;9.752;2023-04-15T00:38:05;6.53;;;5.72;;
22441;SDS011;11388;54.456;9.752;2023-04-15T00:40:33;7.50;;;5.63;;
22441;SDS011;11388;54.456;9.752;2023-04-15T00:42:59;6.10;;;5.35;;
22441;SDS011;11388;54.456;9.752;2023-04-15T00:45:25;6.38;;;5.68;;
22441;SDS011;11388;54.456;9.752;2023-04-15T00:47:52;7.22;;;5.70;;
22441;SDS011;11388;54.456;9.752;2023-04-15T00:50:18;7.15;;;5.93;;
22441;SDS011;11388;54.456;9.752;2023-04-15T00:52:44;7.88;;;6.28;;
22441;SDS011;11388;54.456;9.752;2023-04-15T00:55:09;7.05;;;5.85;;
22441;SDS011;11388;54.456;9.752;2023-04-15T00:57:35;8.38;;;6.43;;
22441;SDS011;11388;54.456;9.752;2023-04-15T01:00:04;9.18;;;6.50;;
22441;SDS011;11388;54.456;9.752;2023-04-15T01:02:35;7.15;;;5.63;;
22441;SDS011;11388;54.456;9.752;2023-04-15T01:05:01;6.82;;;6.13;;
22441;SDS011;11388;54.456;9.752;2023-04-15T01:07:28;7.30;;;6.60;;
22441;SDS011;11388;54.456;9.752;2023-04-15T01:09:55;6.70;;;6.00;;
22441;SDS011;11388;54.456;9.752;2023-04-15T01:12:20;6.95;;;6.25;;
22441;SDS011;11388;54.456;9.752;2023-04-15T01:14:48;7.95;;;6.22;;
22441;SDS011;11388;54.456;9.752;2023-04-15T01:17:14;7.25;;;6.38;;
22441;SDS011;11388;54.456;9.752;2023-04-15T01:19:40;7.03;;;6.00;;
22441;SDS011;11388;54.456;9.752;2023-04-15T01:22:06;6.88;;;6.18;;
22441;SDS011;11388;54.456;9.752;2023-04-15T01:24:32;7.28;;;6.40;;
22441;SDS011;11388;54.456;9.752;2023-04-15T01:26:58;6.70;;;6.00;;
22441;SDS011;11388;54.456;9.752;2023-04-15T01:29:24;7.68;;;6.15;;
22441;SDS011;11388;54.456;9.752;2023-04-15T01:31:50;7.90;;;6.30;;
22441;SDS011;11388;54.456;9.752;2023-04-15T01:34:17;7.28;;;6.20;;
22441;SDS011;11388;54.456;9.752;2023-04-15T01:36:43;6.93;;;6.22;;
22441;SDS011;11388;54.456;9.752;2023-04-15T01:39:09;7.63;;;6.50;;
22441;SDS011;11388;54.456;9.752;2023-04-15T01:41:34;7.03;;;6.20;;
22441;SDS011;11388;54.456;9.752;2023-04-15T01:44:00;7.03;;;6.32;;
22441;SDS011;11388;54.456;9.752;2023-04-15T01:46:26;7.60;;;6.10;;
22441;SDS011;11388;54.456;9.752;2023-04-15T01:48:52;7.78;;;6.95;;
22441;SDS011;11388;54.456;9.752;2023-04-15T01:51:21;7.32;;;6.53;;
22441;SDS011;11388;54.456;9.752;2023-04-15T01:53:47;8.63;;;6.55;;
22441;SDS011;11388;54.456;9.752;2023-04-15T01:56:12;7.57;;;6.88;;
22441;SDS011;11388;54.456;9.752;2023-04-15T01:58:38;7.65;;;6.75;;
22441;SDS011;11388;54.456;9.752;2023-04-15T02:01:04;7.93;;;7.07;;
22441;SDS011;11388;54.456;9.752;2023-04-15T02:03:31;7.85;;;7.05;;
22441;SDS011;11388;54.456;9.752;2023-04-15T02:05:57;7.65;;;6.85;;
22441;SDS011;11388;54.456;9.752;2023-04-15T02:08:23;8.02;;;6.95;;
22441;SDS011;11388;54.456;9.752;2023-04-15T02:10:49;7.60;;;6.60;;
22441;SDS011;11388;54.456;9.752;2023-04-15T02:13:16;8.15;;;6.65;;
22441;SDS011;11388;54.456;9.752;2023-04-15T02:15:48;7.95;;;6.78;;
22441;SDS011;11388;54.456;9.752;2023-04-15T02:18:18;7.70;;;6.82;;
22441;SDS011;11388;54.456;9.752;2023-04-15T02:20:44;8.65;;;6.80;;
22441;SDS011;11388;54.456;9.752;2023-04-15T02:23:11;8.85;;;7.07;;
22441;SDS011;11388;54.456;9.752;2023-04-15T02:25:37;9.13;;;7.30;;
22441;SDS011;11388;54.456;9.752;2023-04-15T02:28:03;10.18;;;7.28;;
22441;SDS011;11388;54.456;9.752;2023-04-15T02:30:30;8.20;;;7.30;;
22441;SDS011;11388;54.456;9.752;2023-04-15T02:33:05;7.75;;;6.70;;
22441;SDS011;11388;54.456;9.752;2023-04-15T02:35:31;8.15;;;7.20;;
22441;SDS011;11388;54.456;9.752;2023-04-15T02:37:57;8.38;;;6.80;;
22441;SDS011;11388;54.456;9.752;2023-04-15T02:40:23;8.35;;;7.07;;
22441;SDS011;11388;54.456;9.752;2023-04-15T02:42:49;8.02;;;7.00;;
22441;SDS011;11388;54.456;9.752;2023-04-15T02:45:15;8.27;;;7.38;;
22441;SDS011;11388;54.456;9.752;2023-04-15T02:47:42;10.48;;;7.80;;
22441;SDS011;11388;54.456;9.752;2023-04-15T02:50:09;9.07;;;7.80;;
22441;SDS011;11388;54.456;9.752;2023-04-15T02:52:42;8.85;;;7.72;;
22441;SDS011;11388;54.456;9.752;2023-04-15T02:55:18;8.57;;;7.13;;
22441;SDS011;11388;54.456;9.752;2023-04-15T02:57:43;10.75;;;7.63;;
22441;SDS011;11388;54.456;9.752;2023-04-15T03:00:09;9.77;;;7.78;;
22441;SDS011;11388;54.456;9.752;2023-04-15T03:02:36;9.85;;;8.05;;
22441;SDS011;11388;54.456;9.752;2023-04-15T03:05:14;9.15;;;8.18;;
22441;SDS011;11388;54.456;9.752;2023-04-15T03:07:50;9.05;;;7.68;;
22441;SDS011;11388;54.456;9.752;2023-04-15T03:10:19;9.60;;;7.88;;
22441;SDS011;11388;54.456;9.752;2023-04-15T03:12:45;8.60;;;7.70;;
22441;SDS011;11388;54.456;9.752;2023-04-15T03:15:11;9.02;;;8.07;;
22441;SDS011;11388;54.456;9.752;2023-04-15T03:17:37;9.07;;;7.65;;
22441;SDS011;11388;54.456;9.752;2023-04-15T03:20:03;9.77;;;7.78;;
22441;SDS011;11388;54.456;9.752;2023-04-15T03:22:30;10.13;;;7.78;;
22441;SDS011;11388;54.456;9.752;2023-04-15T03:24:57;10.45;;;8.20;;
22441;SDS011;11388;54.456;9.752;2023-04-15T03:27:23;11.02;;;8.75;;
22441;SDS011;11388;54.456;9.752;2023-04-15T03:29:49;9.07;;;8.07;;
22441;SDS011;11388;54.456;9.752;2023-04-15T03:32:15;10.35;;;8.00;;
22441;SDS011;11388;54.456;9.752;2023-04-15T03:34:42;9.18;;;8.20;;
22441;SDS011;11388;54.456;9.752;2023-04-15T03:37:07;9.73;;;7.97;;
22441;SDS011;11388;54.456;9.752;2023-04-15T03:39:33;9.93;;;7.93;;
22441;SDS011;11388;54.456;9.752;2023-04-15T03:41:59;10.35;;;8.32;;
22441;SDS011;11388;54.456;9.752;2023-04-15T03:44:26;9.77;;;8.20;;
22441;SDS011;11388;54.456;9.752;2023-04-15T03:46:52;10.25;;;8.38;;
22441;SDS011;11388;54.456;9.752;2023-04-15T03:49:18;9.25;;;8.07;;
22441;SDS011;11388;54.456;9.752;2023-04-15T03:51:44;10.05;;;8.30;;
22441;SDS011;11388;54.456;9.752;2023-04-15T03:54:10;10.02;;;8.32;;
22441;SDS011;11388;54.456;9.752;2023-04-15T03:56:39;10.20;;;8.60;;
22441;SDS011;11388;54.456;9.752;2023-04-15T03:59:05;10.30;;;8.63;;
22441;SDS011;11388;54.456;9.752;2023-04-15T04:01:40;10.35;;;8.18;;
22441;SDS011;11388;54.456;9.752;2023-04-15T04:04:08;9.95;;;8.65;;
22441;SDS011;11388;54.456;9.752;2023-04-15T04:06:34;10.10;;;8.52;;
22441;SDS011;11388;54.456;9.752;2023-04-15T04:09:00;11.07;;;8.50;;
22441;SDS011;11388;54.456;9.752;2023-04-15T04:11:26;11.85;;;9.10;;
22441;SDS011;11388;54.456;9.752;2023-04-15T04:13:52;10.38;;;9.00;;
22441;SDS011;11388;54.456;9.752;2023-04-15T04:16:18;11.57;;;9.45;;
22441;SDS011;11388;54.456;9.752;2023-04-15T04:18:44;10.70;;;9.23;;
22441;SDS011;11388;54.456;9.752;2023-04-15T04:21:10;11.35;;;9.57;;
22441;SDS011;11388;54.456;9.752;2023-04-15T04:23:35;11.70;;;9.60;;
22441;SDS011;11388;54.456;9.752;2023-04-15T04:26:01;12.43;;;9.90;;
22441;SDS011;11388;54.456;9.752;2023-04-15T04:28:27;12.02;;;9.43;;
22441;SDS011;11388;54.456;9.752;2023-04-15T04:30:53;13.40;;;10.45;;
22441;SDS011;11388;54.456;9.752;2023-04-15T04:35:48;13.77;;;10.40;;
22441;SDS011;11388;54.456;9.752;2023-04-15T04:38:14;13.40;;;10.88;;
22441;SDS011;11388;54.456;9.752;2023-04-15T04:40:39;12.77;;;10.68;;
22441;SDS011;11388;54.456;9.752;2023-04-15T04:43:05;14.05;;;10.65;;
22441;SDS011;11388;54.456;9.752;2023-04-15T04:45:31;13.70;;;10.68;;
22441;SDS011;11388;54.456;9.752;2023-04-15T04:47:57;12.68;;;10.82;;
22441;SDS011;11388;54.456;9.752;2023-04-15T04:50:22;11.38;;;9.80;;
22441;SDS011;11388;54.456;9.752;2023-04-15T04:52:48;13.70;;;10.93;;
22441;SDS011;11388;54.456;9.752;2023-04-15T04:55:14;13.43;;;10.65;;
22441;SDS011;11388;54.456;9.752;2023-04-15T04:57:39;14.40;;;11.25;;
22441;SDS011;11388;54.456;9.752;2023-04-15T05:00:06;13.52;;;10.55;;
22441;SDS011;11388;54.456;9.752;2023-04-15T05:02:33;14.82;;;10.98;;
22441;SDS011;11388;54.456;9.752;2023-04-15T05:04:58;14.05;;;10.90;;
22441;SDS011;11388;54.456;9.752;2023-04-15T05:07:24;13.38;;;10.57;;
22441;SDS011;11388;54.456;9.752;2023-04-15T05:09:50;13.07;;;10.80;;
22441;SDS011;11388;54.456;9.752;2023-04-15T05:12:16;14.00;;;10.85;;
22441;SDS011;11388;54.456;9.752;2023-04-15T05:14:42;16.27;;;11.05;;
22441;SDS011;11388;54.456;9.752;2023-04-15T05:17:08;14.00;;;11.02;;
22441;SDS011;11388;54.456;9.752;2023-04-15T05:19:35;17.38;;;11.82;;
22441;SDS011;11388;54.456;9.752;2023-04-15T05:22:01;17.10;;;12.13;;
22441;SDS011;11388;54.456;9.752;2023-04-15T05:24:28;13.93;;;11.77;;
22441;SDS011;11388;54.456;9.752;2023-04-15T05:26:54;15.25;;;11.68;;
22441;SDS011;11388;54.456;9.752;2023-04-15T05:29:21;15.60;;;11.60;;
22441;SDS011;11388;54.456;9.752;2023-04-15T05:31:46;14.88;;;11.48;;
22441;SDS011;11388;54.456;9.752;2023-04-15T05:34:12;14.93;;;11.65;;
22441;SDS011;11388;54.456;9.752;2023-04-15T05:36:40;14.57;;;11.25;;
22441;SDS011;11388;54.456;9.752;2023-04-15T05:39:06;14.57;;;11.05;;
22441;SDS011;11388;54.456;9.752;2023-04-15T05:41:31;16.30;;;11.55;;
22441;SDS011;11388;54.456;9.752;2023-04-15T05:43:58;14.73;;;11.77;;
22441;SDS011;11388;54.456;9.752;2023-04-15T05:46:24;16.30;;;11.10;;
22441;SDS011;11388;54.456;9.752;2023-04-15T05:48:50;14.15;;;11.75;;
22441;SDS011;11388;54.456;9.752;2023-04-15T05:51:16;16.27;;;12.18;;
22441;SDS011;11388;54.456;9.752;2023-04-15T05:53:41;17.33;;;13.20;;
22441;SDS011;11388;54.456;9.752;2023-04-15T05:56:07;16.15;;;13.13;;
22441;SDS011;11388;54.456;9.752;2023-04-15T05:58:33;18.92;;;13.10;;
22441;SDS011;11388;54.456;9.752;2023-04-15T06:00:59;16.02;;;12.48;;
22441;SDS011;11388;54.456;9.752;2023-04-15T06:03:25;17.80;;;13.52;;
22441;SDS011;11388;54.456;9.752;2023-04-15T06:05:53;17.60;;;13.77;;
22441;SDS011;11388;54.456;9.752;2023-04-15T06:08:18;17.35;;;12.80;;
22441;SDS011;11388;54.456;9.752;2023-04-15T06:10:44;17.70;;;13.75;;
22441;SDS011;11388;54.456;9.752;2023-04-15T06:13:12;17.73;;;14.23;;
22441;SDS011;11388;54.456;9.752;2023-04-15T06:15:38;18.52;;;14.38;;
22441;SDS011;11388;54.456;9.752;2023-04-15T06:18:04;18.85;;;13.90;;
22441;SDS011;11388;54.456;9.752;2023-04-15T06:20:30;15.50;;;13.80;;
22441;SDS011;11388;54.456;9.752;2023-04-15T06:22:56;19.95;;;15.30;;
22441;SDS011;11388;54.456;9.752;2023-04-15T06:25:21;21.50;;;15.32;;
22441;SDS011;11388;54.456;9.752;2023-04-15T06:27:48;22.13;;;16.00;;
22441;SDS011;11388;54.456;9.752;2023-04-15T06:30:13;21.17;;;16.60;;
22441;SDS011;11388;54.456;9.752;2023-04-15T06:32:39;24.60;;;17.85;;
22441;SDS011;11388;54.456;9.752;2023-04-15T06:35:05;23.58;;;17.52;;
22441;SDS011;11388;54.456;9.752;2023-04-15T06:37:31;27.55;;;19.23;;
22441;SDS011;11388;54.456;9.752;2023-04-15T06:39:56;25.95;;;19.77;;
22441;SDS011;11388;54.456;9.752;2023-04-15T06:42:22;24.92;;;19.00;;
22441;SDS011;11388;54.456;9.752;2023-04-15T06:44:48;26.27;;;19.92;;
22441;SDS011;11388;54.456;9.752;2023-04-15T06:47:14;27.55;;;20.63;;
22441;SDS011;11388;54.456;9.752;2023-04-15T06:49:40;30.77;;;22.02;;
22441;SDS011;11388;54.456;9.752;2023-04-15T06:52:07;27.02;;;21.30;;
22441;SDS011;11388;54.456;9.752;2023-04-15T06:54:34;29.40;;;21.25;;
22441;SDS011;11388;54.456;9.752;2023-04-15T06:56:59;25.23;;;20.08;;
22441;SDS011;11388;54.456;9.752;2023-04-15T06:59:25;29.13;;;21.67;;
22441;SDS011;11388;54.456;9.752;2023-04-15T07:01:51;29.80;;;21.92;;
22441;SDS011;11388;54.456;9.752;2023-04-15T07:04:17;28.83;;;22.13;;
22441;SDS011;11388;54.456;9.752;2023-04-15T07:06:42;22.83;;;19.77;;
22441;SDS011;11388;54.456;9.752;2023-04-15T07:09:09;25.55;;;20.48;;
22441;SDS011;11388;54.456;9.752;2023-04-15T07:11:34;24.10;;;19.17;;
22441;SDS011;11388;54.456;9.752;2023-04-15T07:14:00;23.05;;;18.92;;
22441;SDS011;11388;54.456;9.752;2023-04-15T07:16:28;22.40;;;18.98;;
22441;SDS011;11388;54.456;9.752;2023-04-15T07:18:54;25.80;;;19.38;;
22441;SDS011;11388;54.456;9.752;2023-04-15T07:21:21;21.65;;;18.48;;
22441;SDS011;11388;54.456;9.752;2023-04-15T07:23:50;23.20;;;19.23;;
22441;SDS011;11388;54.456;9.752;2023-04-15T07:26:16;24.60;;;19.30;;
22441;SDS011;11388;54.456;9.752;2023-04-15T07:28:41;24.85;;;18.83;;
22441;SDS011;11388;54.456;9.752;2023-04-15T07:31:07;22.95;;;19.27;;
22441;SDS011;11388;54.456;9.752;2023-04-15T07:33:33;26.05;;;19.45;;
22441;SDS011;11388;54.456;9.752;2023-04-15T07:35:59;22.67;;;18.77;;
22441;SDS011;11388;54.456;9.752;2023-04-15T07:38:25;22.92;;;17.85;;
22441;SDS011;11388;54.456;9.752;2023-04-15T07:40:56;23.90;;;18.30;;
22441;SDS011;11388;54.456;9.752;2023-04-15T07:43:29;25.40;;;18.67;;
22441;SDS011;11388;54.456;9.752;2023-04-15T07:45:55;22.80;;;18.23;;
22441;SDS011;11388;54.456;9.752;2023-04-15T07:48:20;22.45;;;18.30;;
22441;SDS011;11388;54.456;9.752;2023-04-15T07:50:46;20.73;;;17.45;;
22441;SDS011;11388;54.456;9.752;2023-04-15T07:53:15;23.20;;;18.83;;
22441;SDS011;11388;54.456;9.752;2023-04-15T07:55:40;21.15;;;16.73;;
22441;SDS011;11388;54.456;9.752;2023-04-15T07:58:06;21.00;;;17.05;;
22441;SDS011;11388;54.456;9.752;2023-04-15T08:00:32;21.13;;;18.17;;
22441;SDS011;11388;54.456;9.752;2023-04-15T08:02:58;20.33;;;15.95;;
22441;SDS011;11388;54.456;9.752;2023-04-15T08:05:23;20.75;;;17.45;;
22441;SDS011;11388;54.456;9.752;2023-04-15T08:07:49;19.70;;;17.00;;
22441;SDS011;11388;54.456;9.752;2023-04-15T08:10:15;21.02;;;15.85;;
22441;SDS011;11388;54.456;9.752;2023-04-15T08:12:42;22.15;;;16.95;;
22441;SDS011;11388;54.456;9.752;2023-04-15T08:15:07;21.67;;;16.42;;
22441;SDS011;11388;54.456;9.752;2023-04-15T08:17:38;19.85;;;16.05;;
22441;SDS011;11388;54.456;9.752;2023-04-15T08:20:04;20.27;;;15.55;;
22441;SDS011;11388;54.456;9.752;2023-04-15T08:22:30;18.92;;;15.68;;
22441;SDS011;11388;54.456;9.752;2023-04-15T08:24:59;18.70;;;15.50;;
22441;SDS011;11388;54.456;9.752;2023-04-15T08:27:25;18.35;;;16.05;;
22441;SDS011;11388;54.456;9.752;2023-04-15T08:29:51;18.83;;;15.82;;
22441;SDS011;11388;54.456;9.752;2023-04-15T08:32:17;19.67;;;16.05;;
22441;SDS011;11388;54.456;9.752;2023-04-15T08:34:51;19.98;;;16.30;;
22441;SDS011;11388;54.456;9.752;2023-04-15T08:37:24;21.38;;;15.88;;
22441;SDS011;11388;54.456;9.752;2023-04-15T08:39:50;21.05;;;15.60;;
22441;SDS011;11388;54.456;9.752;2023-04-15T08:42:16;18.83;;;15.40;;
22441;SDS011;11388;54.456;9.752;2023-04-15T08:44:47;18.70;;;16.05;;
22441;SDS011;11388;54.456;9.752;2023-04-15T08:47:14;20.60;;;15.52;;
22441;SDS011;11388;54.456;9.752;2023-04-15T08:52:29;18.60;;;14.63;;
22441;SDS011;11388;54.456;9.752;2023-04-15T08:54:56;20.48;;;15.40;;
22441;SDS011;11388;54.456;9.752;2023-04-15T08:57:28;18.38;;;14.50;;
22441;SDS011;11388;54.456;9.752;2023-04-15T08:59:56;17.58;;;14.88;;
22441;SDS011;11388;54.456;9.752;2023-04-15T09:02:23;17.63;;;14.68;;
22441;SDS011;11388;54.456;9.752;2023-04-15T09:04:52;17.38;;;15.20;;
22441;SDS011;11388;54.456;9.752;2023-04-15T09:07:18;18.98;;;15.57;;
22441;SDS011;11388;54.456;9.752;2023-04-15T09:09:43;17.42;;;14.20;;
22441;SDS011;11388;54.456;9.752;2023-04-15T09:12:10;18.05;;;14.13;;
22441;SDS011;11388;54.456;9.752;2023-04-15T09:14:36;15.60;;;13.55;;
22441;SDS011;11388;54.456;9.752;2023-04-15T09:17:04;17.42;;;14.18;;
22441;SDS011;11388;54.456;9.752;2023-04-15T09:19:37;16.48;;;13.70;;
22441;SDS011;11388;54.456;9.752;2023-04-15T09:22:02;15.82;;;13.85;;
22441;SDS011;11388;54.456;9.752;2023-04-15T09:24:38;15.90;;;13.52;;
22441;SDS011;11388;54.456;9.752;2023-04-15T09:27:07;14.45;;;12.63;;
22441;SDS011;11388;54.456;9.752;2023-04-15T09:29:32;14.05;;;12.43;;
22441;SDS011;11388;54.456;9.752;2023-04-15T09:32:11;17.25;;;12.98;;
22441;SDS011;11388;54.456;9.752;2023-04-15T09:34:37;17.50;;;13.50;;
22441;SDS011;11388;54.456;9.752;2023-04-15T09:37:03;14.98;;;12.82;;
22441;SDS011;11388;54.456;9.752;2023-04-15T09:39:49;15.18;;;12.60;;
22441;SDS011;11388;54.456;9.752;2023-04-15T09:42:18;15.38;;;12.77;;
22441;SDS011;11388;54.456;9.752;2023-04-15T09:44:58;16.83;;;12.95;;
22441;SDS011;11388;54.456;9.752;2023-04-15T09:47:36;14.80;;;12.63;;
22441;SDS011;11388;54.456;9.752;2023-04-15T09:50:02;15.18;;;12.43;;
22441;SDS011;11388;54.456;9.752;2023-04-15T09:52:28;16.42;;;12.90;;
22441;SDS011;11388;54.456;9.752;2023-04-15T09:54:56;14.02;;;12.52;;
22441;SDS011;11388;54.456;9.752;2023-04-15T09:57:23;14.32;;;12.60;;
22441;SDS011;11388;54.456;9.752;2023-04-15T09:59:49;13.60;;;11.82;;
22441;SDS011;11388;54.456;9.752;2023-04-15T10:02:18;14.00;;;11.80;;
22441;SDS011;11388;54.456;9.752;2023-04-15T10:04:48;15.07;;;11.65;;
22441;SDS011;11388;54.456;9.752;2023-04-15T10:07:14;15.35;;;12.32;;
22441;SDS011;11388;54.456;9.752;2023-04-15T10:09:50;13.15;;;11.73;;
22441;SDS011;11388;54.456;9.752;2023-04-15T10:12:18;13.30;;;11.38;;
22441;SDS011;11388;54.456;9.752;2023-04-15T10:14:51;13.10;;;11.50;;
22441;SDS011;11388;54.456;9.752;2023-04-15T10:17:21;14.98;;;11.52;;
22441;SDS011;11388;54.456;9.752;2023-04-15T10:19:52;13.10;;;11.55;;
22441;SDS011;11388;54.456;9.752;2023-04-15T10:22:21;12.32;;;10.90;;
22441;SDS011;11388;54.456;9.752;2023-04-15T10:24:48;13.98;;;11.45;;
22441;SDS011;11388;54.456;9.752;2023-04-15T10:27:17;13.55;;;11.35;;
22441;SDS011;11388;54.456;9.752;2023-04-15T10:29:44;15.32;;;11.52;;
22441;SDS011;11388;54.456;9.752;2023-04-15T10:32:10;15.70;;;11.52;;
22441;SDS011;11388;54.456;9.752;2023-04-15T10:48:50;14.95;;;11.48;;
22441;SDS011;11388;54.456;9.752;2023-04-15T10:54:30;12.85;;;11.52;;
22441;SDS011;11388;54.456;9.752;2023-04-15T11:41:23;12.48;;;10.90;;
22441;SDS011;11388;54.456;9.752;2023-04-15T11:43:52;12.70;;;11.23;;
22441;SDS011;11388;54.456;9.752;2023-04-15T11:46:18;13.38;;;10.85;;
22441;SDS011;11388;54.456;9.752;2023-04-15T11:48:47;12.23;;;10.93;;
22441;SDS011;11388;54.456;9.752;2023-04-15T11:51:15;12.10;;;10.90;;
22441;SDS011;11388;54.456;9.752;2023-04-15T11:56:24;12.27;;;11.05;;
22441;SDS011;11388;54.456;9.752;2023-04-15T11:58:52;12.57;;;11.10;;
22441;SDS011;11388;54.456;9.752;2023-04-15T12:01:29;12.80;;;11.50;;
22441;SDS011;11388;54.456;9.752;2023-04-15T12:04:12;13.50;;;10.95;;
22441;SDS011;11388;54.456;9.752;2023-04-15T12:06:51;13.23;;;10.80;;
22441;SDS011;11388;54.456;9.752;2023-04-15T12:09:30;12.23;;;11.02;;
22441;SDS011;11388;54.456;9.752;2023-04-15T12:12:26;12.40;;;11.18;;
22441;SDS011;11388;54.456;9.752;2023-04-15T12:14:55;12.02;;;10.90;;
22441;SDS011;11388;54.456;9.752;2023-04-15T12:17:24;12.80;;;11.02;;
22441;SDS011;11388;54.456;9.752;2023-04-15T12:19:54;12.32;;;10.60;;
22441;SDS011;11388;54.456;9.752;2023-04-15T12:22:20;10.73;;;9.60;;
22441;SDS011;11388;54.456;9.752;2023-04-15T12:24:47;10.80;;;8.98;;
22441;SDS011;11388;54.456;9.752;2023-04-15T12:27:24;11.95;;;9.23;;
22441;SDS011;11388;54.456;9.752;2023-04-15T12:29:51;12.13;;;9.00;;
22441;SDS011;11388;54.456;9.752;2023-04-15T12:32:44;10.27;;;8.95;;
22441;SDS011;11388;54.456;9.752;2023-04-15T12:35:12;10.45;;;9.20;;
22441;SDS011;11388;54.456;9.752;2023-04-15T12:37:43;9.90;;;8.93;;
22441;SDS011;11388;54.456;9.752;2023-04-15T12:40:29;9.70;;;8.80;;
22441;SDS011;11388;54.456;9.752;2023-04-15T12:42:57;9.63;;;8.63;;
22441;SDS011;11388;54.456;9.752;2023-04-15T12:45:23;10.18;;;9.07;;
22441;SDS011;11388;54.456;9.752;2023-04-15T12:47:51;10.05;;;8.93;;
22441;SDS011;11388;54.456;9.752;2023-04-15T12:50:25;9.20;;;8.30;;
22441;SDS011;11388;54.456;9.752;2023-04-15T12:52:54;9.93;;;8.70;;
22441;SDS011;11388;54.456;9.752;2023-04-15T12:55:34;8.98;;;8.07;;
22441;SDS011;11388;54.456;9.752;2023-04-15T12:58:00;9.15;;;8.13;;
22441;SDS011;11388;54.456;9.752;2023-04-15T13:00:26;9.10;;;8.20;;
22441;SDS011;11388;54.456;9.752;2023-04-15T13:02:52;9.98;;;8.68;;
22441;SDS011;11388;54.456;9.752;2023-04-15T13:05:18;11.77;;;9.32;;
22441;SDS011;11388;54.456;9.752;2023-04-15T13:07:49;9.90;;;8.90;;
22441;SDS011;11388;54.456;9.752;2023-04-15T13:10:18;9.95;;;9.02;;
22441;SDS011;11388;54.456;9.752;2023-04-15T13:12:47;10.60;;;9.50;;
22441;SDS011;11388;54.456;9.752;2023-04-15T13:15:14;11.95;;;10.00;;
22441;SDS011;11388;54.456;9.752;2023-04-15T13:17:43;10.90;;;9.80;;
22441;SDS011;11388;54.456;9.752;2023-04-15T13:20:09;11.35;;;10.32;;
22441;SDS011;11388;54.456;9.752;2023-04-15T13:22:35;10.98;;;9.98;;
22441;SDS011;11388;54.456;9.752;2023-04-15T13:25:01;11.13;;;10.05;;
22441;SDS011;11388;54.456;9.752;2023-04-15T13:27:26;11.70;;;10.50;;
22441;SDS011;11388;54.456;9.752;2023-04-15T13:29:52;11.48;;;9.88;;
22441;SDS011;11388;54.456;9.752;2023-04-15T13:32:26;11.10;;;9.65;;
22441;SDS011;11388;54.456;9.752;2023-04-15T13:34:51;11.07;;;9.98;;
22441;SDS011;11388;54.456;9.752;2023-04-15T13:37:18;11.00;;;9.95;;
22441;SDS011;11388;54.456;9.752;2023-04-15T13:39:45;11.45;;;10.27;;
22441;SDS011;11388;54.456;9.752;2023-04-15T13:42:10;11.10;;;10.10;;
22441;SDS011;11388;54.456;9.752;2023-04-15T13:44:36;11.27;;;10.18;;
22441;SDS011;11388;54.456;9.752;2023-04-15T13:47:02;11.38;;;10.30;;
22441;SDS011;11388;54.456;9.752;2023-04-15T13:49:28;11.55;;;10.35;;
22441;SDS011;11388;54.456;9.752;2023-04-15T13:51:54;11.25;;;10.15;;
22441;SDS011;11388;54.456;9.752;2023-04-15T13:54:20;12.57;;;10.40;;
22441;SDS011;11388;54.456;9.752;2023-04-15T13:56:45;11.30;;;10.13;;
22441;SDS011;11388;54.456;9.752;2023-04-15T13:59:11;14.25;;;10.70;;
22441;SDS011;11388;54.456;9.752;2023-04-15T14:01:37;11.32;;;10.18;;
22441;SDS011;11388;54.456;9.752;2023-04-15T14:04:06;11.68;;;10.27;;
22441;SDS011;11388;54.456;9.752;2023-04-15T14:06:31;11.32;;;10.13;;
22441;SDS011;11388;54.456;9.752;2023-04-15T14:08:57;10.88;;;9.77;;
22441;SDS011;11388;54.456;9.752;2023-04-15T14:11:26;11.93;;;9.82;;
22441;SDS011;11388;54.456;9.752;2023-04-15T14:13:52;10.75;;;9.57;;
22441;SDS011;11388;54.456;9.752;2023-04-15T14:16:18;10.40;;;9.40;;
22441;SDS011;11388;54.456;9.752;2023-04-15T14:18:43;10.30;;;9.27;;
22441;SDS011;11388;54.456;9.752;2023-04-15T14:21:09;10.45;;;9.38;;
22441;SDS011;11388;54.456;9.752;2023-04-15T14:23:35;9.55;;;8.55;;
22441;SDS011;11388;54.456;9.752;2023-04-15T14:26:06;10.32;;;8.77;;
22441;SDS011;11388;54.456;9.752;2023-04-15T14:28:42;9.20;;;8.13;;
22441;SDS011;11388;54.456;9.752;2023-04-15T14:31:08;8.90;;;8.00;;
22441;SDS011;11388;54.456;9.752;2023-04-15T14:33:38;10.02;;;8.60;;
22441;SDS011;11388;54.456;9.752;2023-04-15T14:36:11;9.57;;;8.30;;
22441;SDS011;11388;54.456;9.752;2023-04-15T14:38:36;9.35;;;8.45;;
22441;SDS011;11388;54.456;9.752;2023-04-15T14:41:06;9.60;;;8.38;;
22441;SDS011;11388;54.456;9.752;2023-04-15T14:43:34;9.70;;;8.65;;
22441;SDS011;11388;54.456;9.752;2023-04-15T14:46:00;9.35;;;8.45;;
22441;SDS011;11388;54.456;9.752;2023-04-15T14:48:26;9.00;;;8.15;;
22441;SDS011;11388;54.456;9.752;2023-04-15T14:50:52;10.70;;;8.20;;
22441;SDS011;11388;54.456;9.752;2023-04-15T14:53:18;8.68;;;7.65;;
22441;SDS011;11388;54.456;9.752;2023-04-15T14:55:44;9.40;;;8.45;;
22441;SDS011;11388;54.456;9.752;2023-04-15T14:58:12;8.02;;;7.22;;
22441;SDS011;11388;54.456;9.752;2023-04-15T15:01:03;8.35;;;7.40;;
22441;SDS011;11388;54.456;9.752;2023-04-15T15:03:31;9.93;;;7.53;;
22441;SDS011;11388;54.456;9.752;2023-04-15T15:05:57;8.98;;;7.65;;
22441;SDS011;11388;54.456;9.752;2023-04-15T15:08:23;10.20;;;7.30;;
22441;SDS011;11388;54.456;9.752;2023-04-15T15:10:49;9.20;;;7.65;;
22441;SDS011;11388;54.456;9.752;2023-04-15T15:13:15;8.68;;;7.47;;
22441;SDS011;11388;54.456;9.752;2023-04-15T15:15:43;8.25;;;7.45;;
22441;SDS011;11388;54.456;9.752;2023-04-15T15:18:09;10.57;;;8.35;;
22441;SDS011;11388;54.456;9.752;2023-04-15T15:20:35;9.45;;;7.75;;
22441;SDS011;11388;54.456;9.752;2023-04-15T15:23:01;8.57;;;7.78;;
22441;SDS011;11388;54.456;9.752;2023-04-15T15:25:27;9.10;;;8.20;;
22441;SDS011;11388;54.456;9.752;2023-04-15T15:27:53;8.98;;;8.07;;
22441;SDS011;11388;54.456;9.752;2023-04-15T15:30:18;8.82;;;7.82;;
22441;SDS011;11388;54.456;9.752;2023-04-15T15:32:44;8.90;;;7.85;;
22441;SDS011;11388;54.456;9.752;2023-04-15T15:35:10;9.75;;;8.13;;
22441;SDS011;11388;54.456;9.752;2023-04-15T15:37:36;9.85;;;8.50;;
22441;SDS011;11388;54.456;9.752;2023-04-15T15:40:05;9.57;;;8.57;;
22441;SDS011;11388;54.456;9.752;2023-04-15T15:42:37;9.80;;;8.80;;
22441;SDS011;11388;54.456;9.752;2023-04-15T15:45:02;10.00;;;9.00;;